93rd Latvian ChampionshipLong Course (50m)
Riga (LAT)26 - 28 May 2017
Men, 100m Breaststroke, Final,  Open
Men, 100m Breaststroke, Prelim,  Open
Men, 100m Breaststroke, Final,  Open26 May 2017 - 17:13TimePts.
1.ALLIKVEE, Martin1995ESTSK Garant1:02.19775
2.SHILOV, Denis1997RUSNizhny1:02.30771
3.BOBROVS, Daniils1997LATBJSS Ridzene-ZIEP1:02.34769
4.MASKALENKO, Nikolajs1993LATSK Delfins1:03.84716
5.ADAMENIA, Anton1996BLRBelarus1:04.07708
6.KAVALIOU, Yauhen1996BLRBelarus1:04.30701
7.SILINS, Janis Vitauts2000LATValmieras BSS1:04.67689
8.ROZALOVSKIS, Andrejs1992LATBJSS Ridzene-OSC1:05.64659
9.NIINE, Joonas2000ESTUK Aktiiv1:04.23703
10.HEIN, Silver1997ESTUjumisklubi Briis1:04.39698
11.SOVTSA, Mark2001ESTTop Uk1:06.67629
12.MJASOJEDOVS, Fjodors1994LATBJSS Ridzene-DSN1:06.84624
13.RUDAVS, Didzis2001LATJelgavas SPS1:07.09617
14.MATVEJEV, Tiit1999ESTUjumise SK1:07.41608
15.SALKOVSKIS, Jevgenijs2000LATKipsalas peldbaseins1:08.61577
16.LICITIS, Arturs1999LATBJSS Ridzene-DSN1:09.87546
Men, 100m Breaststroke, Prelim,  Open26 May 2017 - 10:38TimePts.
1.BOBROVS, Daniils1997LATBJSS Ridzene-ZIEP1:03.23737
2.SHILOV, Denis1997RUSNizhny1:04.10707
3.ADAMENIA, Anton1996BLRBelarus1:04.27702
4.KAVALIOU, Yauhen1996BLRBelarus1:04.66689
5.MASKALENKO, Nikolajs1993LATSK Delfins1:04.87683
6.ALLIKVEE, Martin1995ESTSK Garant1:05.04677
7.NIINE, Joonas2000ESTUK Aktiiv1:05.05677
8.ROZALOVSKIS, Andrejs1992LATBJSS Ridzene-OSC1:05.29669
9.SILINS, Janis Vitauts2000LATValmieras BSS1:05.51663
10.MJASOJEDOVS, Fjodors1994LATBJSS Ridzene-DSN1:06.11645
11.HEIN, Silver1997ESTUjumisklubi Briis1:06.20642
12.BOICOVS, Jevgenijs1997LATJelgavas SPS1:06.61630
13.KOMARS, Deniss1997LATJelgavas SPS1:06.64630
14.RUDAVS, Didzis2001LATJelgavas SPS1:06.83624
15.SOVTSA, Mark2001ESTTop Uk1:07.20614
16.MATVEJEV, Tiit1999ESTUjumise SK1:07.34610
17.HUZEYEU, Andrei1995BLRMinsk "Start"1:08.20587
18.SALKOVSKIS, Jevgenijs2000LATKipsalas peldbaseins1:08.42582
19.LICITIS, Arturs1999LATBJSS Ridzene-DSN1:08.81572
20.BALCUNS, Martins2000LATBJSS Ridzene-ZIEP1:10.35535
21.PRIEDNIEKS, Marko2001LATBJSS Ridzene-ZIEP1:10.57530
22.VERETENNIKOVS, Romans1998LATBJSS Ridzene-DSN1:10.69527
23.KAHANOVICS, Rihards2002LATBJSS Ridzene-ZIEP1:10.99521
24.GROMOVS, Kristers2002LATJelgavas SPS1:11.50510
25.BOKA, Deniss2000LATBJSS Ridzene-DSN1:11.57508
26.HARLAPS, Maksims1998LATVentspils SS Spars1:12.01499
27.KORHOVS, Maksims1999LATBJSS Ridzene-ZOL1:12.50489
28.GALILEEVS, Nikita1999LATKipsalas peldbaseins1:12.63486
29.SEMENUKS, Daniels2001LATValmieras BSS1:13.03478
30.KOLESNIKOVS, Glebs2000LATPK Goldswimmer1:13.44470
31.AKMENS, Emils Ivars2001LATBJSS Ridzene-DSN1:14.78445
32.BELSKIS, Zenons2001LATBJSS Ridzene-DSN1:14.92443
33.GOLCVARTS, Germans2003LATJelgavas SPS1:14.98442
34.AKIMOVS, Miko1999LATJurmalas SS1:15.54432
35.NIKIFOROVS, Danils2000LATValmieras BSS1:16.17421
36.DOMBROVSKIS-PISARENOK, Armands2000LATKipsalas peldbaseins1:16.64414
37.FEDOSIKS, Vladlens2001LATJurmalas SS1:17.19405
38.LISUKS, Eriks Marks2003LATBJSS Ridzene-ZIEP1:17.33403
39.VEJONIS, Rolands2002LATBJSS Ridzene-ZIEP1:17.78396
40.KALVANS, Tomass1999LATJurmalas SS1:18.42386
41.KRASIKOVS, Igors2001LATBJSS Ridzene-DSN1:19.22375
42.GRUSKEVICS, Georgs2001LATLiepajas KSS-LOC1:20.13362
43.ATELSONS, Edvards Toms2003LATBJSS Ridzene-ZIEP1:21.20348
44.POTEHINS, Ricijs Pukitis2002LATBJSS Ridzene-ZIEP1:21.28347
45.KOPIKS, Pavels2001LATStopinu peldbaseins1:21.42345
46.KRASNOSCOKS, Romans2003LATSK Delfins1:21.96338
47.ALEIDZANS, Dainis2001LATSK Delfins1:27.45278